Deadwood, Oregon
Current Conditions -  °F | °C
As of 2:54 PM on Thursday 27 Nov 2014 (Local Time) from KEUG Reporting Station
Overcast Overcast  
Wind Chill: 12°   Ceiling: 3400
Heat Index: 12°   Visibility: 10mi
Dew Point: 10°   Wind: 5mph
Humidity: 89%   Direction: 210°SSW
Pressure: 29.97"   Gusts: NA
Location:  44.1°N, 123.76°W
Report Text: KEUG 272254Z 21004KT 10SM FEW012 OVC034 12/10 A2997 RMK AO2 SLP149 T01170100
Loading
Personal Weather Stations






























Interactive Weather Map New forecast layout! Learn more

10-Day Weather Forecast

Advertisements
Track Severe Weather on mobile